Union Lake, MI (48387)

9:38 PM EDT on May 27, 2017 (GMT -0400)
Union Lake - Commerce | | Change Station

Elev 935 ft 42.61 °N, 83.46 °W | Updated 43 seconds ago

Partly Cloudy
Partly Cloudy
64.4 °F
Feels Like 64.4 °F
N
1.0
Wind Variable Wind from SSE

Today
High -- | Low -- °F
--% Chance of Precip.
Yesterday
High -- | Low -- °F
Precip. -- in
Pressure 29.85 in
Visibility 10.0 miles
Clouds Few 6000 ft
Mostly Cloudy 25000 ft
Dew Point 57 °F
Humidity 76%
Rainfall 0.00 in
Snow Depth Not available.
6:01 AM 9:01 PM
Waxing Crescent, 8% visible
METAR KPTK 280053Z 15005KT 10SM FEW060 BKN250 20/13 A2986 RMK AO2 SLP108 T02000133
Pressure 29.85 in
Visibility 10.0 miles
Clouds Few 6000 ft
Mostly Cloudy 25000 ft
Dew Point 57 °F
Humidity 76%
Rainfall 0.00 in
Snow Depth Not available.
6:01 AM 9:01 PM
Waxing Crescent, 8% visible
METAR KPTK 280053Z 15005KT 10SM FEW060 BKN250 20/13 A2986 RMK AO2 SLP108 T02000133

Get Severe Weather Alerts

Thanks for signing up!

Be on the lookout for a verification email in your inbox.

You'll start receiving the daily forecast at 6 AM.

×

10-Day Weather Forecast

Almanac

Astronomy

May. 27, 2017 Rise Set
Actual Time
Civil Twilight
Nautical Twilight
Astronomical Twilight
Moon
Length of Visible Light
Length of Day
Tomorrow will be .
, % of the Moon is Illuminated

Today's Extremes

State Highs State Lows

Community

WunderPhotos

Category 6

Welcome to Category 6. This is the collective home for Weather Underground's featured writeups by Dr. Jeff Masters (right), Bob Henson (left), Chris Burt, and other regular contributors.

Nearby

Air Quality

  Air Quality AQ Index Pollutant
Not available.

Snow Depth

Station Depth Elevation

Earthquake Activity

City Distance Mag. Time & Date
Minimum magnitude displayed is 2.5.

Coastal Water Temperatures

Place Temperature

Stations

Nearby Weather Stations

Station Location Temp. Windchill Dew Point Humidity Wind Precip. Elev Updated Type
                   

Watches & Warnings

There are currently no watches in effect.